sensor_id;sensor_type;location;lat;lon;timestamp;P1;durP1;ratioP1;P2;durP2;ratioP2
17390;SDS011;8813;54.444;18.446;2023-07-31T00:01:43;18.48;;;17.77;;
17390;SDS011;8813;54.444;18.446;2023-07-31T00:10:13;17.45;;;16.85;;
17390;SDS011;8813;54.444;18.446;2023-07-31T00:16:51;16.60;;;16.10;;
17390;SDS011;8813;54.444;18.446;2023-07-31T00:19:24;15.68;;;15.18;;
17390;SDS011;8813;54.444;18.446;2023-07-31T00:22:19;15.48;;;14.98;;
17390;SDS011;8813;54.444;18.446;2023-07-31T00:25:41;14.48;;;14.07;;
17390;SDS011;8813;54.444;18.446;2023-07-31T00:28:36;13.50;;;13.10;;
17390;SDS011;8813;54.444;18.446;2023-07-31T00:31:20;13.43;;;13.02;;
17390;SDS011;8813;54.444;18.446;2023-07-31T00:34:10;12.90;;;12.50;;
17390;SDS011;8813;54.444;18.446;2023-07-31T00:37:22;12.90;;;12.50;;
17390;SDS011;8813;54.444;18.446;2023-07-31T00:40:01;13.13;;;12.73;;
17390;SDS011;8813;54.444;18.446;2023-07-31T00:43:00;12.75;;;12.35;;
17390;SDS011;8813;54.444;18.446;2023-07-31T00:45:48;13.30;;;12.90;;
17390;SDS011;8813;54.444;18.446;2023-07-31T00:48:32;13.40;;;13.00;;
17390;SDS011;8813;54.444;18.446;2023-07-31T00:51:29;13.10;;;12.70;;
17390;SDS011;8813;54.444;18.446;2023-07-31T00:54:17;12.95;;;12.55;;
17390;SDS011;8813;54.444;18.446;2023-07-31T00:57:05;13.15;;;12.75;;
17390;SDS011;8813;54.444;18.446;2023-07-31T01:00:16;13.00;;;12.60;;
17390;SDS011;8813;54.444;18.446;2023-07-31T01:03:17;13.10;;;12.70;;
17390;SDS011;8813;54.444;18.446;2023-07-31T01:05:57;13.13;;;12.73;;
17390;SDS011;8813;54.444;18.446;2023-07-31T01:09:16;12.77;;;12.38;;
17390;SDS011;8813;54.444;18.446;2023-07-31T01:12:27;12.73;;;12.32;;
17390;SDS011;8813;54.444;18.446;2023-07-31T01:15:19;12.88;;;12.48;;
17390;SDS011;8813;54.444;18.446;2023-07-31T01:17:49;13.10;;;12.70;;
17390;SDS011;8813;54.444;18.446;2023-07-31T01:20:47;13.75;;;13.35;;
17390;SDS011;8813;54.444;18.446;2023-07-31T01:24:07;13.32;;;12.93;;
17390;SDS011;8813;54.444;18.446;2023-07-31T01:29:57;12.90;;;12.50;;
17390;SDS011;8813;54.444;18.446;2023-07-31T01:33:06;12.55;;;12.15;;
17390;SDS011;8813;54.444;18.446;2023-07-31T01:36:09;12.30;;;12.00;;
17390;SDS011;8813;54.444;18.446;2023-07-31T01:38:48;12.38;;;11.98;;
17390;SDS011;8813;54.444;18.446;2023-07-31T01:41:29;12.50;;;12.10;;
17390;SDS011;8813;54.444;18.446;2023-07-31T01:47:09;11.50;;;11.20;;
17390;SDS011;8813;54.444;18.446;2023-07-31T01:49:49;11.00;;;10.70;;
17390;SDS011;8813;54.444;18.446;2023-07-31T01:52:43;10.25;;;9.95;;
17390;SDS011;8813;54.444;18.446;2023-07-31T01:56:02;9.82;;;9.52;;
17390;SDS011;8813;54.444;18.446;2023-07-31T01:58:58;10.18;;;9.88;;
17390;SDS011;8813;54.444;18.446;2023-07-31T02:05:04;9.95;;;9.65;;
17390;SDS011;8813;54.444;18.446;2023-07-31T02:07:55;10.00;;;9.70;;
17390;SDS011;8813;54.444;18.446;2023-07-31T02:10:51;9.98;;;9.68;;
17390;SDS011;8813;54.444;18.446;2023-07-31T02:13:34;9.30;;;9.10;;
17390;SDS011;8813;54.444;18.446;2023-07-31T02:16:13;8.90;;;8.70;;
17390;SDS011;8813;54.444;18.446;2023-07-31T02:22:11;8.10;;;7.90;;
17390;SDS011;8813;54.444;18.446;2023-07-31T02:24:48;7.70;;;7.50;;
17390;SDS011;8813;54.444;18.446;2023-07-31T02:27:27;7.60;;;7.40;;
17390;SDS011;8813;54.444;18.446;2023-07-31T02:30:16;7.70;;;7.50;;
17390;SDS011;8813;54.444;18.446;2023-07-31T02:33:01;7.78;;;7.57;;
17390;SDS011;8813;54.444;18.446;2023-07-31T02:36:08;7.40;;;7.20;;
17390;SDS011;8813;54.444;18.446;2023-07-31T02:39:18;7.82;;;7.63;;
17390;SDS011;8813;54.444;18.446;2023-07-31T02:42:30;9.05;;;8.52;;
17390;SDS011;8813;54.444;18.446;2023-07-31T02:45:39;7.88;;;7.68;;
17390;SDS011;8813;54.444;18.446;2023-07-31T02:48:19;7.70;;;7.50;;
17390;SDS011;8813;54.444;18.446;2023-07-31T02:50:56;7.97;;;7.78;;
17390;SDS011;8813;54.444;18.446;2023-07-31T02:54:27;7.80;;;7.60;;
17390;SDS011;8813;54.444;18.446;2023-07-31T02:57:16;7.90;;;7.70;;
17390;SDS011;8813;54.444;18.446;2023-07-31T03:00:30;8.70;;;8.40;;
17390;SDS011;8813;54.444;18.446;2023-07-31T03:03:46;8.60;;;8.40;;
17390;SDS011;8813;54.444;18.446;2023-07-31T03:06:31;9.10;;;8.90;;
17390;SDS011;8813;54.444;18.446;2023-07-31T03:09:21;8.55;;;8.35;;
17390;SDS011;8813;54.444;18.446;2023-07-31T03:12:00;9.38;;;9.13;;
17390;SDS011;8813;54.444;18.446;2023-07-31T03:14:50;9.73;;;9.45;;
17390;SDS011;8813;54.444;18.446;2023-07-31T03:17:37;9.07;;;8.68;;
17390;SDS011;8813;54.444;18.446;2023-07-31T03:20:35;9.02;;;8.82;;
17390;SDS011;8813;54.444;18.446;2023-07-31T03:23:27;8.60;;;8.40;;
17390;SDS011;8813;54.444;18.446;2023-07-31T03:26:14;9.20;;;9.00;;
17390;SDS011;8813;54.444;18.446;2023-07-31T03:29:22;8.70;;;8.50;;
17390;SDS011;8813;54.444;18.446;2023-07-31T03:32:16;8.50;;;8.30;;
17390;SDS011;8813;54.444;18.446;2023-07-31T03:35:03;8.82;;;8.63;;
17390;SDS011;8813;54.444;18.446;2023-07-31T03:37:48;8.65;;;8.45;;
17390;SDS011;8813;54.444;18.446;2023-07-31T03:40:37;8.73;;;8.52;;
17390;SDS011;8813;54.444;18.446;2023-07-31T03:43:35;9.80;;;9.50;;
17390;SDS011;8813;54.444;18.446;2023-07-31T03:46:11;9.20;;;9.00;;
17390;SDS011;8813;54.444;18.446;2023-07-31T03:49:05;8.88;;;8.68;;
17390;SDS011;8813;54.444;18.446;2023-07-31T03:52:13;8.98;;;8.77;;
17390;SDS011;8813;54.444;18.446;2023-07-31T03:55:14;9.38;;;9.18;;
17390;SDS011;8813;54.444;18.446;2023-07-31T03:57:50;9.10;;;8.90;;
17390;SDS011;8813;54.444;18.446;2023-07-31T04:00:34;9.32;;;9.13;;
17390;SDS011;8813;54.444;18.446;2023-07-31T04:03:12;8.90;;;8.70;;
17390;SDS011;8813;54.444;18.446;2023-07-31T04:05:39;8.60;;;8.40;;
17390;SDS011;8813;54.444;18.446;2023-07-31T04:08:24;8.68;;;8.48;;
17390;SDS011;8813;54.444;18.446;2023-07-31T04:11:06;8.10;;;7.90;;
17390;SDS011;8813;54.444;18.446;2023-07-31T04:13:44;8.10;;;7.90;;
17390;SDS011;8813;54.444;18.446;2023-07-31T04:16:24;7.80;;;7.60;;
17390;SDS011;8813;54.444;18.446;2023-07-31T04:18:52;7.50;;;7.30;;
17390;SDS011;8813;54.444;18.446;2023-07-31T04:22:11;7.30;;;7.10;;
17390;SDS011;8813;54.444;18.446;2023-07-31T04:24:26;7.85;;;7.25;;
17390;SDS011;8813;54.444;18.446;2023-07-31T04:27:14;6.47;;;6.30;;
17390;SDS011;8813;54.444;18.446;2023-07-31T04:29:53;6.00;;;5.90;;
17390;SDS011;8813;54.444;18.446;2023-07-31T04:35:37;5.88;;;5.78;;
17390;SDS011;8813;54.444;18.446;2023-07-31T04:38:15;6.00;;;5.90;;
17390;SDS011;8813;54.444;18.446;2023-07-31T04:41:05;6.95;;;6.75;;
17390;SDS011;8813;54.444;18.446;2023-07-31T04:43:45;5.95;;;5.85;;
17390;SDS011;8813;54.444;18.446;2023-07-31T04:46:30;5.60;;;5.50;;
17390;SDS011;8813;54.444;18.446;2023-07-31T04:49:14;6.30;;;6.10;;
17390;SDS011;8813;54.444;18.446;2023-07-31T04:52:01;6.50;;;6.40;;
17390;SDS011;8813;54.444;18.446;2023-07-31T04:54:49;6.60;;;6.50;;
17390;SDS011;8813;54.444;18.446;2023-07-31T04:57:44;6.60;;;6.50;;
17390;SDS011;8813;54.444;18.446;2023-07-31T05:00:53;6.15;;;6.05;;
17390;SDS011;8813;54.444;18.446;2023-07-31T05:03:46;6.10;;;5.90;;
17390;SDS011;8813;54.444;18.446;2023-07-31T05:06:35;6.60;;;6.50;;
17390;SDS011;8813;54.444;18.446;2023-07-31T05:09:21;5.90;;;5.80;;
17390;SDS011;8813;54.444;18.446;2023-07-31T05:12:25;5.60;;;5.50;;
17390;SDS011;8813;54.444;18.446;2023-07-31T05:15:08;5.20;;;5.10;;
17390;SDS011;8813;54.444;18.446;2023-07-31T05:17:57;4.65;;;4.55;;
17390;SDS011;8813;54.444;18.446;2023-07-31T05:20:50;4.20;;;4.10;;
17390;SDS011;8813;54.444;18.446;2023-07-31T05:26:55;4.00;;;3.90;;
17390;SDS011;8813;54.444;18.446;2023-07-31T05:29:33;3.80;;;3.70;;
17390;SDS011;8813;54.444;18.446;2023-07-31T05:32:13;4.00;;;3.90;;
17390;SDS011;8813;54.444;18.446;2023-07-31T05:34:57;3.88;;;3.78;;
17390;SDS011;8813;54.444;18.446;2023-07-31T05:37:44;5.95;;;5.38;;
17390;SDS011;8813;54.444;18.446;2023-07-31T05:40:28;3.30;;;3.30;;
17390;SDS011;8813;54.444;18.446;2023-07-31T05:43:01;3.78;;;3.67;;
17390;SDS011;8813;54.444;18.446;2023-07-31T05:45:38;3.00;;;3.00;;
17390;SDS011;8813;54.444;18.446;2023-07-31T05:48:22;2.80;;;2.80;;
17390;SDS011;8813;54.444;18.446;2023-07-31T05:50:58;3.20;;;3.10;;
17390;SDS011;8813;54.444;18.446;2023-07-31T05:53:59;2.70;;;2.70;;
17390;SDS011;8813;54.444;18.446;2023-07-31T05:56:40;2.60;;;2.60;;
17390;SDS011;8813;54.444;18.446;2023-07-31T05:59:27;2.80;;;2.80;;
17390;SDS011;8813;54.444;18.446;2023-07-31T06:02:01;3.03;;;2.92;;
17390;SDS011;8813;54.444;18.446;2023-07-31T06:05:04;2.40;;;2.40;;
17390;SDS011;8813;54.444;18.446;2023-07-31T06:07:52;2.63;;;2.63;;
17390;SDS011;8813;54.444;18.446;2023-07-31T06:10:39;3.80;;;2.70;;
17390;SDS011;8813;54.444;18.446;2023-07-31T06:13:23;2.60;;;2.60;;
17390;SDS011;8813;54.444;18.446;2023-07-31T06:15:52;2.58;;;2.58;;
17390;SDS011;8813;54.444;18.446;2023-07-31T06:18:53;2.80;;;2.80;;
17390;SDS011;8813;54.444;18.446;2023-07-31T06:21:37;2.60;;;2.60;;
17390;SDS011;8813;54.444;18.446;2023-07-31T06:24:20;2.65;;;2.65;;
17390;SDS011;8813;54.444;18.446;2023-07-31T06:27:27;2.50;;;2.40;;
17390;SDS011;8813;54.444;18.446;2023-07-31T06:32:59;2.60;;;2.60;;
17390;SDS011;8813;54.444;18.446;2023-07-31T06:35:30;2.25;;;2.25;;
17390;SDS011;8813;54.444;18.446;2023-07-31T06:38:16;2.78;;;2.67;;
17390;SDS011;8813;54.444;18.446;2023-07-31T06:40:54;2.50;;;2.50;;
17390;SDS011;8813;54.444;18.446;2023-07-31T06:46:58;2.10;;;2.10;;
17390;SDS011;8813;54.444;18.446;2023-07-31T06:49:35;2.40;;;2.40;;
17390;SDS011;8813;54.444;18.446;2023-07-31T06:52:30;3.30;;;3.00;;
17390;SDS011;8813;54.444;18.446;2023-07-31T06:55:09;2.38;;;2.38;;
17390;SDS011;8813;54.444;18.446;2023-07-31T06:58:12;2.00;;;2.00;;
17390;SDS011;8813;54.444;18.446;2023-07-31T07:01:30;2.30;;;2.30;;
17390;SDS011;8813;54.444;18.446;2023-07-31T07:07:36;2.10;;;2.10;;
17390;SDS011;8813;54.444;18.446;2023-07-31T07:10:11;2.38;;;2.38;;
17390;SDS011;8813;54.444;18.446;2023-07-31T07:12:55;1.83;;;1.83;;
17390;SDS011;8813;54.444;18.446;2023-07-31T07:15:34;2.10;;;2.10;;
17390;SDS011;8813;54.444;18.446;2023-07-31T07:18:30;2.10;;;2.10;;
17390;SDS011;8813;54.444;18.446;2023-07-31T07:21:08;1.80;;;1.80;;
17390;SDS011;8813;54.444;18.446;2023-07-31T07:23:48;1.80;;;1.80;;
17390;SDS011;8813;54.444;18.446;2023-07-31T07:26:27;1.63;;;1.63;;
17390;SDS011;8813;54.444;18.446;2023-07-31T07:29:33;3.13;;;1.90;;
17390;SDS011;8813;54.444;18.446;2023-07-31T07:32:32;1.30;;;1.30;;
17390;SDS011;8813;54.444;18.446;2023-07-31T07:38:28;1.65;;;1.65;;
17390;SDS011;8813;54.444;18.446;2023-07-31T07:41:08;6.63;;;3.25;;
17390;SDS011;8813;54.444;18.446;2023-07-31T07:46:38;1.40;;;1.40;;
17390;SDS011;8813;54.444;18.446;2023-07-31T07:49:14;1.55;;;1.55;;
17390;SDS011;8813;54.444;18.446;2023-07-31T07:51:55;1.60;;;1.60;;
17390;SDS011;8813;54.444;18.446;2023-07-31T07:54:46;1.20;;;1.20;;
17390;SDS011;8813;54.444;18.446;2023-07-31T07:57:33;1.40;;;1.40;;
17390;SDS011;8813;54.444;18.446;2023-07-31T08:00:31;1.10;;;1.10;;
17390;SDS011;8813;54.444;18.446;2023-07-31T08:03:03;1.30;;;1.30;;
17390;SDS011;8813;54.444;18.446;2023-07-31T08:05:37;1.30;;;1.30;;
17390;SDS011;8813;54.444;18.446;2023-07-31T08:08:05;1.20;;;1.20;;
17390;SDS011;8813;54.444;18.446;2023-07-31T08:10:40;1.30;;;1.30;;
17390;SDS011;8813;54.444;18.446;2023-07-31T08:13:27;1.20;;;1.20;;
17390;SDS011;8813;54.444;18.446;2023-07-31T08:16:20;1.10;;;1.10;;
17390;SDS011;8813;54.444;18.446;2023-07-31T08:22:08;1.75;;;1.40;;
17390;SDS011;8813;54.444;18.446;2023-07-31T08:24:46;2.70;;;1.13;;
17390;SDS011;8813;54.444;18.446;2023-07-31T08:27:31;1.20;;;1.20;;
17390;SDS011;8813;54.444;18.446;2023-07-31T08:33:03;1.20;;;1.20;;
17390;SDS011;8813;54.444;18.446;2023-07-31T08:35:56;1.10;;;1.10;;
17390;SDS011;8813;54.444;18.446;2023-07-31T08:42:17;1.10;;;1.10;;
17390;SDS011;8813;54.444;18.446;2023-07-31T08:44:54;1.20;;;1.20;;
17390;SDS011;8813;54.444;18.446;2023-07-31T08:47:47;1.40;;;1.40;;
17390;SDS011;8813;54.444;18.446;2023-07-31T08:50:39;1.30;;;1.30;;
17390;SDS011;8813;54.444;18.446;2023-07-31T08:53:18;1.10;;;1.10;;
17390;SDS011;8813;54.444;18.446;2023-07-31T08:56:14;1.20;;;1.20;;
17390;SDS011;8813;54.444;18.446;2023-07-31T08:58:48;1.23;;;1.23;;
17390;SDS011;8813;54.444;18.446;2023-07-31T09:01:26;1.20;;;1.20;;
17390;SDS011;8813;54.444;18.446;2023-07-31T09:04:01;1.15;;;1.15;;
17390;SDS011;8813;54.444;18.446;2023-07-31T09:09:47;1.00;;;1.00;;
17390;SDS011;8813;54.444;18.446;2023-07-31T09:12:22;1.25;;;1.25;;
17390;SDS011;8813;54.444;18.446;2023-07-31T09:15:15;1.30;;;1.30;;
17390;SDS011;8813;54.444;18.446;2023-07-31T09:18:00;1.00;;;1.00;;
17390;SDS011;8813;54.444;18.446;2023-07-31T09:20:41;1.20;;;1.20;;
17390;SDS011;8813;54.444;18.446;2023-07-31T09:23:19;1.23;;;1.23;;
17390;SDS011;8813;54.444;18.446;2023-07-31T09:26:05;1.30;;;1.30;;
17390;SDS011;8813;54.444;18.446;2023-07-31T09:28:43;1.10;;;1.10;;
17390;SDS011;8813;54.444;18.446;2023-07-31T09:31:23;1.10;;;1.10;;
17390;SDS011;8813;54.444;18.446;2023-07-31T09:34:16;1.10;;;1.10;;
17390;SDS011;8813;54.444;18.446;2023-07-31T09:36:55;1.10;;;1.10;;
17390;SDS011;8813;54.444;18.446;2023-07-31T09:39:33;0.88;;;0.88;;
17390;SDS011;8813;54.444;18.446;2023-07-31T09:42:24;1.00;;;1.00;;
17390;SDS011;8813;54.444;18.446;2023-07-31T09:45:07;1.27;;;1.27;;
17390;SDS011;8813;54.444;18.446;2023-07-31T09:47:48;1.00;;;1.00;;
17390;SDS011;8813;54.444;18.446;2023-07-31T09:50:49;0.95;;;0.95;;
17390;SDS011;8813;54.444;18.446;2023-07-31T09:53:29;0.85;;;0.85;;
17390;SDS011;8813;54.444;18.446;2023-07-31T09:56:03;1.00;;;1.00;;
17390;SDS011;8813;54.444;18.446;2023-07-31T09:58:50;1.48;;;1.40;;
17390;SDS011;8813;54.444;18.446;2023-07-31T10:01:21;0.90;;;0.90;;
17390;SDS011;8813;54.444;18.446;2023-07-31T10:04:11;1.05;;;1.05;;
17390;SDS011;8813;54.444;18.446;2023-07-31T10:06:42;1.40;;;1.40;;
17390;SDS011;8813;54.444;18.446;2023-07-31T10:09:23;1.10;;;1.10;;
17390;SDS011;8813;54.444;18.446;2023-07-31T10:11:55;1.10;;;1.10;;
17390;SDS011;8813;54.444;18.446;2023-07-31T10:14:48;1.10;;;1.10;;
17390;SDS011;8813;54.444;18.446;2023-07-31T10:17:26;10.02;;;1.52;;
17390;SDS011;8813;54.444;18.446;2023-07-31T10:19:59;1.30;;;1.30;;
17390;SDS011;8813;54.444;18.446;2023-07-31T10:22:36;1.20;;;1.20;;
17390;SDS011;8813;54.444;18.446;2023-07-31T10:25:10;1.23;;;1.23;;
17390;SDS011;8813;54.444;18.446;2023-07-31T10:27:53;1.20;;;1.20;;
17390;SDS011;8813;54.444;18.446;2023-07-31T10:30:27;1.17;;;1.17;;
17390;SDS011;8813;54.444;18.446;2023-07-31T10:33:18;0.90;;;0.90;;
17390;SDS011;8813;54.444;18.446;2023-07-31T10:38:42;1.20;;;1.20;;
17390;SDS011;8813;54.444;18.446;2023-07-31T10:41:12;1.20;;;1.20;;
17390;SDS011;8813;54.444;18.446;2023-07-31T10:44:00;1.05;;;1.05;;
17390;SDS011;8813;54.444;18.446;2023-07-31T10:46:37;1.13;;;1.13;;
17390;SDS011;8813;54.444;18.446;2023-07-31T10:49:12;1.00;;;1.00;;
17390;SDS011;8813;54.444;18.446;2023-07-31T10:51:59;1.10;;;1.10;;
17390;SDS011;8813;54.444;18.446;2023-07-31T10:54:52;1.20;;;1.20;;
17390;SDS011;8813;54.444;18.446;2023-07-31T10:57:49;1.10;;;1.10;;
17390;SDS011;8813;54.444;18.446;2023-07-31T11:00:41;1.42;;;1.42;;
17390;SDS011;8813;54.444;18.446;2023-07-31T11:03:41;1.30;;;1.30;;
17390;SDS011;8813;54.444;18.446;2023-07-31T11:06:29;0.90;;;0.90;;
17390;SDS011;8813;54.444;18.446;2023-07-31T11:09:00;2.47;;;1.10;;
17390;SDS011;8813;54.444;18.446;2023-07-31T11:11:44;1.00;;;1.00;;
17390;SDS011;8813;54.444;18.446;2023-07-31T11:14:25;1.13;;;1.13;;
17390;SDS011;8813;54.444;18.446;2023-07-31T11:17:20;1.17;;;1.17;;
17390;SDS011;8813;54.444;18.446;2023-07-31T11:19:54;1.00;;;1.00;;
17390;SDS011;8813;54.444;18.446;2023-07-31T11:22:42;1.10;;;1.10;;
17390;SDS011;8813;54.444;18.446;2023-07-31T11:25:18;1.00;;;1.00;;
17390;SDS011;8813;54.444;18.446;2023-07-31T11:30:34;1.02;;;1.02;;
17390;SDS011;8813;54.444;18.446;2023-07-31T11:33:09;1.10;;;1.10;;
17390;SDS011;8813;54.444;18.446;2023-07-31T11:35:53;1.10;;;1.10;;
17390;SDS011;8813;54.444;18.446;2023-07-31T11:38:33;0.95;;;0.95;;
17390;SDS011;8813;54.444;18.446;2023-07-31T11:41:25;1.05;;;1.05;;
17390;SDS011;8813;54.444;18.446;2023-07-31T11:44:12;1.50;;;1.50;;
17390;SDS011;8813;54.444;18.446;2023-07-31T11:47:11;1.20;;;1.20;;
17390;SDS011;8813;54.444;18.446;2023-07-31T11:49:49;1.30;;;1.30;;
17390;SDS011;8813;54.444;18.446;2023-07-31T11:52:25;1.20;;;1.20;;
17390;SDS011;8813;54.444;18.446;2023-07-31T11:55:04;1.30;;;1.30;;
17390;SDS011;8813;54.444;18.446;2023-07-31T11:57:49;1.35;;;1.35;;
17390;SDS011;8813;54.444;18.446;2023-07-31T12:00:32;1.30;;;1.30;;
17390;SDS011;8813;54.444;18.446;2023-07-31T12:03:13;1.00;;;1.00;;
17390;SDS011;8813;54.444;18.446;2023-07-31T12:06:03;1.00;;;1.00;;
17390;SDS011;8813;54.444;18.446;2023-07-31T12:08:36;0.98;;;0.98;;
17390;SDS011;8813;54.444;18.446;2023-07-31T12:11:09;0.90;;;0.90;;
17390;SDS011;8813;54.444;18.446;2023-07-31T12:13:44;0.82;;;0.82;;
17390;SDS011;8813;54.444;18.446;2023-07-31T12:16:19;0.90;;;0.90;;
17390;SDS011;8813;54.444;18.446;2023-07-31T12:19:17;0.80;;;0.80;;
17390;SDS011;8813;54.444;18.446;2023-07-31T12:22:10;0.90;;;0.90;;
17390;SDS011;8813;54.444;18.446;2023-07-31T12:25:01;1.00;;;1.00;;
17390;SDS011;8813;54.444;18.446;2023-07-31T12:28:03;1.00;;;1.00;;
17390;SDS011;8813;54.444;18.446;2023-07-31T12:30:56;1.00;;;1.00;;
17390;SDS011;8813;54.444;18.446;2023-07-31T12:33:40;0.90;;;0.90;;
17390;SDS011;8813;54.444;18.446;2023-07-31T12:38:57;1.33;;;1.33;;
17390;SDS011;8813;54.444;18.446;2023-07-31T12:44:36;0.90;;;0.90;;
17390;SDS011;8813;54.444;18.446;2023-07-31T12:47:30;0.90;;;0.90;;
17390;SDS011;8813;54.444;18.446;2023-07-31T12:50:40;0.95;;;0.95;;
17390;SDS011;8813;54.444;18.446;2023-07-31T12:53:16;1.10;;;1.10;;
17390;SDS011;8813;54.444;18.446;2023-07-31T12:56:05;1.33;;;1.15;;
17390;SDS011;8813;54.444;18.446;2023-07-31T12:58:37;1.00;;;1.00;;
17390;SDS011;8813;54.444;18.446;2023-07-31T13:01:28;1.00;;;1.00;;
17390;SDS011;8813;54.444;18.446;2023-07-31T13:04:00;1.00;;;1.00;;
17390;SDS011;8813;54.444;18.446;2023-07-31T13:06:59;1.25;;;1.25;;
17390;SDS011;8813;54.444;18.446;2023-07-31T13:10:03;1.05;;;1.05;;
17390;SDS011;8813;54.444;18.446;2023-07-31T13:12:52;1.10;;;1.10;;
17390;SDS011;8813;54.444;18.446;2023-07-31T13:15:52;0.90;;;0.90;;
17390;SDS011;8813;54.444;18.446;2023-07-31T13:18:44;1.65;;;1.15;;
17390;SDS011;8813;54.444;18.446;2023-07-31T13:21:30;0.80;;;0.80;;
17390;SDS011;8813;54.444;18.446;2023-07-31T13:24:01;6.03;;;1.65;;
17390;SDS011;8813;54.444;18.446;2023-07-31T13:26:36;1.02;;;1.02;;
17390;SDS011;8813;54.444;18.446;2023-07-31T13:29:20;1.20;;;1.13;;
17390;SDS011;8813;54.444;18.446;2023-07-31T13:31:59;1.25;;;1.25;;
17390;SDS011;8813;54.444;18.446;2023-07-31T13:34:48;1.17;;;1.17;;
17390;SDS011;8813;54.444;18.446;2023-07-31T13:37:31;1.00;;;1.00;;
17390;SDS011;8813;54.444;18.446;2023-07-31T13:40:15;1.00;;;1.00;;
17390;SDS011;8813;54.444;18.446;2023-07-31T13:42:56;1.17;;;1.17;;
17390;SDS011;8813;54.444;18.446;2023-07-31T13:45:37;1.30;;;1.30;;
17390;SDS011;8813;54.444;18.446;2023-07-31T13:48:31;1.50;;;1.40;;
17390;SDS011;8813;54.444;18.446;2023-07-31T13:51:27;1.30;;;1.30;;
17390;SDS011;8813;54.444;18.446;2023-07-31T13:54:22;1.40;;;1.40;;
17390;SDS011;8813;54.444;18.446;2023-07-31T13:57:34;1.08;;;1.08;;
17390;SDS011;8813;54.444;18.446;2023-07-31T14:03:18;0.98;;;0.98;;
17390;SDS011;8813;54.444;18.446;2023-07-31T14:06:09;1.27;;;1.27;;
17390;SDS011;8813;54.444;18.446;2023-07-31T14:08:49;1.65;;;1.30;;
17390;SDS011;8813;54.444;18.446;2023-07-31T14:11:23;1.00;;;1.00;;
17390;SDS011;8813;54.444;18.446;2023-07-31T14:14:05;1.23;;;1.23;;
17390;SDS011;8813;54.444;18.446;2023-07-31T14:17:07;1.00;;;1.00;;
17390;SDS011;8813;54.444;18.446;2023-07-31T14:19:59;1.10;;;1.10;;
17390;SDS011;8813;54.444;18.446;2023-07-31T14:22:46;1.67;;;1.58;;
17390;SDS011;8813;54.444;18.446;2023-07-31T14:25:46;0.95;;;0.95;;
17390;SDS011;8813;54.444;18.446;2023-07-31T14:28:36;0.90;;;0.90;;
17390;SDS011;8813;54.444;18.446;2023-07-31T14:31:29;1.10;;;1.10;;
17390;SDS011;8813;54.444;18.446;2023-07-31T14:34:09;1.00;;;1.00;;
17390;SDS011;8813;54.444;18.446;2023-07-31T14:36:53;1.30;;;1.30;;
17390;SDS011;8813;54.444;18.446;2023-07-31T14:39:37;1.10;;;1.10;;
17390;SDS011;8813;54.444;18.446;2023-07-31T14:42:29;1.00;;;1.00;;
17390;SDS011;8813;54.444;18.446;2023-07-31T14:45:12;1.02;;;1.02;;
17390;SDS011;8813;54.444;18.446;2023-07-31T14:48:14;1.10;;;1.10;;
17390;SDS011;8813;54.444;18.446;2023-07-31T14:51:11;0.90;;;0.90;;
17390;SDS011;8813;54.444;18.446;2023-07-31T14:53:51;1.00;;;1.00;;
17390;SDS011;8813;54.444;18.446;2023-07-31T14:56:52;0.90;;;0.90;;
17390;SDS011;8813;54.444;18.446;2023-07-31T14:59:22;1.02;;;1.02;;
17390;SDS011;8813;54.444;18.446;2023-07-31T15:01:50;0.98;;;0.98;;
17390;SDS011;8813;54.444;18.446;2023-07-31T15:04:52;1.00;;;1.00;;
17390;SDS011;8813;54.444;18.446;2023-07-31T15:07:14;0.95;;;0.95;;
17390;SDS011;8813;54.444;18.446;2023-07-31T15:09:41;3.95;;;1.88;;
17390;SDS011;8813;54.444;18.446;2023-07-31T15:12:19;1.63;;;1.60;;
17390;SDS011;8813;54.444;18.446;2023-07-31T15:15:11;1.10;;;1.10;;
17390;SDS011;8813;54.444;18.446;2023-07-31T15:17:49;1.23;;;1.23;;
17390;SDS011;8813;54.444;18.446;2023-07-31T15:20:22;1.17;;;1.17;;
17390;SDS011;8813;54.444;18.446;2023-07-31T15:22:58;1.05;;;1.05;;
17390;SDS011;8813;54.444;18.446;2023-07-31T15:25:36;1.10;;;1.10;;
17390;SDS011;8813;54.444;18.446;2023-07-31T15:28:36;1.10;;;1.10;;
17390;SDS011;8813;54.444;18.446;2023-07-31T15:31:17;1.20;;;1.20;;
17390;SDS011;8813;54.444;18.446;2023-07-31T15:33:57;0.90;;;0.90;;
17390;SDS011;8813;54.444;18.446;2023-07-31T15:36:39;1.10;;;1.10;;
17390;SDS011;8813;54.444;18.446;2023-07-31T15:39:25;1.00;;;1.00;;
17390;SDS011;8813;54.444;18.446;2023-07-31T15:42:02;1.10;;;1.10;;
17390;SDS011;8813;54.444;18.446;2023-07-31T15:44:49;1.10;;;1.10;;
17390;SDS011;8813;54.444;18.446;2023-07-31T15:47:22;2.75;;;2.65;;
17390;SDS011;8813;54.444;18.446;2023-07-31T15:50:08;1.00;;;1.00;;
17390;SDS011;8813;54.444;18.446;2023-07-31T15:52:48;1.02;;;1.02;;
17390;SDS011;8813;54.444;18.446;2023-07-31T15:58:32;1.33;;;1.33;;
17390;SDS011;8813;54.444;18.446;2023-07-31T16:01:20;1.48;;;1.38;;
17390;SDS011;8813;54.444;18.446;2023-07-31T16:03:55;1.48;;;1.48;;
17390;SDS011;8813;54.444;18.446;2023-07-31T16:06:28;1.20;;;1.20;;
17390;SDS011;8813;54.444;18.446;2023-07-31T16:09:01;1.20;;;1.20;;
17390;SDS011;8813;54.444;18.446;2023-07-31T16:11:45;1.75;;;1.75;;
17390;SDS011;8813;54.444;18.446;2023-07-31T16:14:29;1.00;;;1.00;;
17390;SDS011;8813;54.444;18.446;2023-07-31T16:17:06;1.15;;;1.15;;
17390;SDS011;8813;54.444;18.446;2023-07-31T16:19:40;1.00;;;1.00;;
17390;SDS011;8813;54.444;18.446;2023-07-31T16:25:00;1.13;;;1.13;;
17390;SDS011;8813;54.444;18.446;2023-07-31T16:27:42;1.10;;;1.10;;
17390;SDS011;8813;54.444;18.446;2023-07-31T16:30:23;1.20;;;1.20;;
17390;SDS011;8813;54.444;18.446;2023-07-31T16:32:58;1.65;;;1.65;;
17390;SDS011;8813;54.444;18.446;2023-07-31T16:35:38;1.50;;;1.50;;
17390;SDS011;8813;54.444;18.446;2023-07-31T16:38:24;3.25;;;3.05;;
17390;SDS011;8813;54.444;18.446;2023-07-31T16:41:00;1.70;;;1.65;;
17390;SDS011;8813;54.444;18.446;2023-07-31T16:43:41;1.38;;;1.38;;
17390;SDS011;8813;54.444;18.446;2023-07-31T16:46:28;1.08;;;1.08;;
17390;SDS011;8813;54.444;18.446;2023-07-31T16:49:03;1.10;;;1.10;;
17390;SDS011;8813;54.444;18.446;2023-07-31T16:51:51;1.33;;;1.27;;
17390;SDS011;8813;54.444;18.446;2023-07-31T16:54:21;1.30;;;1.30;;
17390;SDS011;8813;54.444;18.446;2023-07-31T16:57:00;1.00;;;1.00;;
17390;SDS011;8813;54.444;18.446;2023-07-31T16:59:58;1.58;;;1.58;;
17390;SDS011;8813;54.444;18.446;2023-07-31T17:02:58;1.15;;;1.15;;
17390;SDS011;8813;54.444;18.446;2023-07-31T17:05:36;1.20;;;1.20;;
17390;SDS011;8813;54.444;18.446;2023-07-31T17:08:19;1.30;;;1.30;;
17390;SDS011;8813;54.444;18.446;2023-07-31T17:10:52;1.73;;;1.65;;
17390;SDS011;8813;54.444;18.446;2023-07-31T17:13:32;1.20;;;1.20;;
17390;SDS011;8813;54.444;18.446;2023-07-31T17:16:24;1.80;;;1.70;;
17390;SDS011;8813;54.444;18.446;2023-07-31T17:19:01;1.40;;;1.40;;
17390;SDS011;8813;54.444;18.446;2023-07-31T17:21:46;1.10;;;1.10;;
17390;SDS011;8813;54.444;18.446;2023-07-31T17:24:21;1.30;;;1.30;;
17390;SDS011;8813;54.444;18.446;2023-07-31T17:26:57;1.77;;;1.65;;
17390;SDS011;8813;54.444;18.446;2023-07-31T17:29:28;1.45;;;1.45;;
17390;SDS011;8813;54.444;18.446;2023-07-31T17:32:09;1.10;;;1.10;;
17390;SDS011;8813;54.444;18.446;2023-07-31T17:35:06;1.25;;;1.25;;
17390;SDS011;8813;54.444;18.446;2023-07-31T17:38:10;1.30;;;1.30;;
17390;SDS011;8813;54.444;18.446;2023-07-31T17:40:55;1.30;;;1.30;;
17390;SDS011;8813;54.444;18.446;2023-07-31T17:43:51;1.20;;;1.20;;
17390;SDS011;8813;54.444;18.446;2023-07-31T17:46:30;1.15;;;1.15;;
17390;SDS011;8813;54.444;18.446;2023-07-31T17:49:06;1.13;;;1.13;;
17390;SDS011;8813;54.444;18.446;2023-07-31T17:51:37;1.30;;;1.30;;
17390;SDS011;8813;54.444;18.446;2023-07-31T17:54:18;1.38;;;1.38;;